createdAt,value
2022-09-25T06:30:40.917Z,98399.09
2022-09-25T06:33:52.458Z,98394.97
2022-09-25T06:37:02.683Z,98408.16
2022-09-25T06:40:13.040Z,98398.91
2022-09-25T06:43:25.564Z,98404.16
2022-09-25T06:46:37.156Z,98399.63
2022-09-25T06:49:47.662Z,98399.63
2022-09-25T06:52:59.422Z,98400.50
2022-09-25T06:56:11.392Z,98402.31
2022-09-25T06:59:21.706Z,98404.06
2022-09-25T07:02:52.432Z,98407.47
2022-09-25T07:06:03.534Z,98407.63
2022-09-25T07:09:13.928Z,98408.69
2022-09-25T07:12:24.026Z,98405.38
2022-09-25T07:15:34.633Z,98404.75
2022-09-25T07:18:47.256Z,98404.97
2022-09-25T07:21:57.387Z,98407.09
2022-09-25T07:25:08.825Z,98405.47
2022-09-25T07:28:20.327Z,98406.63
2022-09-25T07:31:33.046Z,98403.47
2022-09-25T07:34:44.615Z,98415.34
2022-09-25T07:37:57.561Z,98417.22
2022-09-25T07:41:08.780Z,98412.94
2022-09-25T07:44:38.394Z,98412.75
2022-09-25T07:47:48.754Z,98412.75
2022-09-25T07:51:02.329Z,98416.31
2022-09-25T07:54:12.397Z,98407.66
2022-09-25T07:57:22.566Z,98400.84
2022-09-25T08:00:33.453Z,98402.59
2022-09-25T08:03:43.528Z,98410.44
2022-09-25T08:06:56.294Z,98404.56
2022-09-25T08:10:07.981Z,98408.13
2022-09-25T08:13:21.057Z,98408.75
2022-09-25T08:16:31.113Z,98416.66
2022-09-25T08:19:41.181Z,98419.50
2022-09-25T08:22:57.317Z,98420.38
2022-09-25T08:26:07.894Z,98417.97
2022-09-25T08:29:23.166Z,98420.56
2022-09-25T08:32:34.756Z,98425.88
2022-09-25T08:35:44.968Z,98420.34
2022-09-25T08:38:58.682Z,98420.34
2022-09-25T08:42:18.433Z,98421.41
2022-09-25T08:45:44.315Z,98423.41
2022-09-25T08:49:05.993Z,98418.75
2022-09-25T08:52:19.598Z,98430.69
2022-09-25T08:55:48.256Z,98427.13
2022-09-25T08:59:05.871Z,98420.09
2022-09-25T09:02:18.652Z,98424.78
2022-09-25T09:05:33.160Z,98427.53
2022-09-25T09:08:46.716Z,98426.56
2022-09-25T09:12:03.796Z,98418.50
2022-09-25T09:15:27.088Z,98419.47
2022-09-25T09:18:40.103Z,98422.09
2022-09-25T09:21:57.399Z,98423.72
2022-09-25T09:25:17.026Z,98424.28
2022-09-25T09:28:50.118Z,98424.91
2022-09-25T09:32:15.497Z,98422.19
2022-09-25T09:35:34.119Z,98419.03
2022-09-25T09:38:54.602Z,98416.53
2022-09-25T09:42:15.630Z,98424.78
2022-09-25T09:45:38.583Z,98428.34
2022-09-25T09:49:00.757Z,98421.69
2022-09-25T09:52:16.964Z,98422.91
2022-09-25T09:55:36.551Z,98422.19
2022-09-25T09:58:51.138Z,98423.94
2022-09-25T10:02:16.072Z,98430.03
2022-09-25T10:05:28.975Z,98425.63
2022-09-25T10:08:39.300Z,98425.09
2022-09-25T10:11:59.859Z,98425.09
2022-09-25T10:15:31.209Z,98422.44
2022-09-25T10:18:47.706Z,98416.78
2022-09-25T10:22:03.379Z,98421.75
2022-09-25T10:25:14.038Z,98410.53
2022-09-25T10:28:28.716Z,98405.47
2022-09-25T10:31:41.839Z,98415.06
2022-09-25T10:34:54.802Z,98410.19
2022-09-25T10:38:05.719Z,98414.50
2022-09-25T10:41:19.938Z,98406.16
2022-09-25T10:44:33.893Z,98411.84
2022-09-25T10:47:58.432Z,98412.56
2022-09-25T10:51:11.852Z,98405.47
2022-09-25T10:54:21.932Z,98413.25
2022-09-25T10:57:39.230Z,98406.31
2022-09-25T11:00:56.296Z,98411.78
2022-09-25T11:04:15.965Z,98404.69
2022-09-25T11:07:27.990Z,98404.97
2022-09-25T11:10:51.082Z,98407.06
2022-09-25T11:14:05.024Z,98399.41
2022-09-25T11:17:33.091Z,98401.81
2022-09-25T11:20:43.237Z,98402.44
2022-09-25T11:24:08.039Z,98400.13
2022-09-25T11:27:24.848Z,98403.50
2022-09-25T11:30:43.751Z,98399.94
2022-09-25T11:34:03.758Z,98404.97
2022-09-25T11:37:20.344Z,98404.50
2022-09-25T11:40:58.393Z,98398.53
2022-09-25T11:44:20.888Z,98401.41
2022-09-25T11:47:38.609Z,98395.78
2022-09-25T11:50:56.267Z,98403.50
2022-09-25T11:54:33.267Z,98402.94
2022-09-25T11:57:54.495Z,98403.63
2022-09-25T12:01:17.980Z,98406.78
2022-09-25T12:04:47.474Z,98400.38
2022-09-25T12:08:10.741Z,98396.34
2022-09-25T12:11:30.860Z,98408.13
2022-09-25T12:14:50.794Z,98412.50
2022-09-25T12:18:11.692Z,98412.53
2022-09-25T12:21:34.568Z,98416.50
2022-09-25T12:24:55.846Z,98413.81
2022-09-25T12:28:17.073Z,98417.00
2022-09-25T12:31:39.883Z,98423.78
2022-09-25T12:35:05.673Z,98427.16
2022-09-25T12:38:25.842Z,98430.75
2022-09-25T12:41:42.697Z,98423.28
2022-09-25T12:44:59.543Z,98433.41
2022-09-25T12:48:15.396Z,98428.59
2022-09-25T12:51:31.964Z,98437.34
2022-09-25T12:54:51.534Z,98434.06
2022-09-25T12:58:12.024Z,98437.78
2022-09-25T13:01:27.082Z,98433.81
2022-09-25T13:04:58.101Z,98431.41
2022-09-25T13:08:16.848Z,98439.22
2022-09-25T13:11:38.277Z,98436.94
2022-09-25T13:14:54.170Z,98442.97
2022-09-25T13:18:06.471Z,98444.75
2022-09-25T13:21:30.712Z,98440.09
2022-09-25T13:24:52.467Z,98442.94
2022-09-25T13:28:10.974Z,98444.16
2022-09-25T13:31:27.385Z,98444.09
2022-09-25T13:34:41.097Z,98440.81
2022-09-25T13:38:09.308Z,98445.03
2022-09-25T13:41:18.438Z,98442.19
2022-09-25T13:44:49.991Z,98448.25
2022-09-25T13:48:07.652Z,98452.50
2022-09-25T13:51:36.513Z,98461.78
2022-09-25T13:54:47.912Z,98459.13
2022-09-25T13:58:03.663Z,98452.22
2022-09-25T14:01:33.650Z,98452.00
2022-09-25T14:04:48.667Z,98459.88
2022-09-25T14:08:03.590Z,98449.94
2022-09-25T14:11:20.153Z,98450.22
2022-09-25T14:14:35.329Z,98442.84
2022-09-25T14:17:46.349Z,98443.28
2022-09-25T14:21:02.661Z,98441.22
2022-09-25T14:24:20.167Z,98442.31
2022-09-25T14:27:31.523Z,98438.56
2022-09-25T14:30:41.633Z,98433.03
2022-09-25T14:34:15.812Z,98430.16
2022-09-25T14:37:44.762Z,98425.53
2022-09-25T14:41:13.581Z,98426.16
2022-09-25T14:44:40.080Z,98431.22
2022-09-25T14:47:53.689Z,98416.88
2022-09-25T14:51:07.493Z,98424.94
2022-09-25T14:54:23.083Z,98420.25
2022-09-25T14:57:37.217Z,98418.06
2022-09-25T15:00:53.331Z,98419.66
2022-09-25T15:04:05.929Z,98417.09
2022-09-25T15:07:17.949Z,98416.94
2022-09-25T15:10:30.781Z,98411.25
2022-09-25T15:13:42.411Z,98424.06
2022-09-25T15:17:04.866Z,98415.91
2022-09-25T15:20:19.926Z,98412.97
2022-09-25T15:23:35.136Z,98410.41
2022-09-25T15:26:50.719Z,98411.13
2022-09-25T15:30:03.072Z,98409.31
2022-09-25T15:33:23.812Z,98409.06
2022-09-25T15:36:33.995Z,98405.97
2022-09-25T15:39:45.129Z,98407.00
2022-09-25T15:42:56.210Z,98401.69
2022-09-25T15:46:32.668Z,98415.03
2022-09-25T15:49:44.823Z,98420.03
2022-09-25T15:52:57.586Z,98413.28
2022-09-25T15:56:17.382Z,98424.69
2022-09-25T15:59:32.017Z,98417.50
2022-09-25T16:03:03.950Z,98408.78
2022-09-25T16:06:17.624Z,98415.91
2022-09-25T16:09:31.843Z,98413.06
2022-09-25T16:12:47.551Z,98410.63
2022-09-25T16:15:57.946Z,98415.28
2022-09-25T16:19:27.899Z,98416.69
2022-09-25T16:22:49.029Z,98414.56
2022-09-25T16:25:59.595Z,98412.78
2022-09-25T16:29:21.056Z,98421.13
2022-09-25T16:32:31.880Z,98411.44
2022-09-25T16:36:09.410Z,98416.53
2022-09-25T16:39:26.134Z,98413.84
2022-09-25T16:42:40.572Z,98411.09
2022-09-25T16:45:59.010Z,98416.88
2022-09-25T16:49:09.522Z,98418.63
2022-09-25T16:52:22.719Z,98421.31
2022-09-25T16:55:38.331Z,98416.97
2022-09-25T16:58:49.497Z,98403.00
2022-09-25T17:02:05.859Z,98414.13
2022-09-25T17:05:20.414Z,98422.44
2022-09-25T17:08:30.478Z,98425.72
2022-09-25T17:11:44.595Z,98428.03
2022-09-25T17:14:55.147Z,98418.22
2022-09-25T17:18:14.190Z,98425.69
2022-09-25T17:21:24.319Z,98420.38
2022-09-25T17:24:34.609Z,98426.94
2022-09-25T17:27:46.691Z,98424.16
2022-09-25T17:30:56.901Z,98428.16
2022-09-25T17:34:11.676Z,98428.84
2022-09-25T17:37:22.758Z,98422.53
2022-09-25T17:40:34.548Z,98430.09
2022-09-25T17:43:46.232Z,98424.84
2022-09-25T17:46:56.649Z,98425.44
2022-09-25T17:50:07.393Z,98419.13
2022-09-25T17:53:19.605Z,98435.19
2022-09-25T17:56:31.091Z,98436.59
2022-09-25T17:59:42.577Z,98433.03
2022-09-25T18:02:52.885Z,98444.13
2022-09-25T18:06:03.139Z,98447.69
2022-09-25T18:09:13.386Z,98445.03
2022-09-25T18:12:23.651Z,98447.13
2022-09-25T18:15:37.523Z,98455.25
2022-09-25T18:18:59.088Z,98449.13
2022-09-25T18:22:19.187Z,98450.91
2022-09-25T18:25:30.241Z,98456.16
2022-09-25T18:28:40.345Z,98454.88
2022-09-25T18:31:51.855Z,98449.63
2022-09-25T18:35:02.972Z,98453.69
2022-09-25T18:38:13.826Z,98440.72
2022-09-25T18:41:24.125Z,98449.44
2022-09-25T18:44:42.188Z,98448.56
2022-09-25T18:47:55.766Z,98445.75
2022-09-25T18:51:07.234Z,98441.25
2022-09-25T18:54:17.519Z,98446.97
2022-09-25T18:57:28.733Z,98449.34
2022-09-25T19:00:39.861Z,98454.19
2022-09-25T19:03:52.964Z,98456.47
2022-09-25T19:07:03.057Z,98458.09
2022-09-25T19:10:13.628Z,98462.25
2022-09-25T19:13:23.755Z,98457.28
2022-09-25T19:16:38.079Z,98459.25
2022-09-25T19:19:50.304Z,98462.84
2022-09-25T19:23:02.558Z,98451.63
2022-09-25T19:26:16.561Z,98452.44
2022-09-25T19:29:26.706Z,98450.38
2022-09-25T19:32:36.754Z,98442.44
2022-09-25T19:35:48.149Z,98448.19
2022-09-25T19:38:59.591Z,98454.22
2022-09-25T19:42:10.635Z,98460.84
2022-09-25T19:45:21.241Z,98460.53
2022-09-25T19:48:31.399Z,98463.03
2022-09-25T19:51:43.896Z,98464.47
